Time;durP1;ratioP1;P1;durP2;ratioP2;P2;SDS_P1;SDS_P2;PMS_P1;PMS_P2;Temp;Humidity;BMP_temperature;BMP_pressure;BME280_temperature;BME280_humidity;BME280_pressure;Samples;Min_cycle;Max_cycle;Signal;HPM_P1;HPM_P2
2022/06/20 00:01:45;;;;;;;11.05;3.78;;;14.90;99.90;;;;;;5061660;28;20197;-81
2022/06/20 00:04:20;;;;;;;7.00;2.50;;;14.90;99.90;;;;;;5056752;28;20204;-81
2022/06/20 00:06:50;;;;;;;5.88;2.40;;;15.00;99.90;;;;;;5066818;28;20575;-81
2022/06/20 00:09:21;;;;;;;7.80;2.30;;;15.10;99.90;;;;;;5063205;28;20197;-81
2022/06/20 00:11:54;;;;;;;7.53;2.40;;;15.10;99.90;;;;;;5063093;28;20722;-80
2022/06/20 00:14:25;;;;;;;6.40;2.75;;;15.10;99.90;;;;;;5055351;28;20213;-81
2022/06/20 00:16:55;;;;;;;4.22;2.70;;;15.10;99.90;;;;;;5060632;28;20256;-81
2022/06/20 00:19:26;;;;;;;8.43;3.30;;;15.20;99.90;;;;;;5070209;28;20189;-82
2022/06/20 00:21:57;;;;;;;7.60;3.35;;;15.20;99.90;;;;;;5066157;28;20637;-83
2022/06/20 00:24:29;;;;;;;6.15;3.17;;;15.30;99.90;;;;;;5059086;28;20197;-82
2022/06/20 00:27:06;;;;;;;8.07;3.22;;;15.40;99.90;;;;;;5064335;28;20233;-82
2022/06/20 00:29:37;;;;;;;16.95;9.93;;;15.40;99.90;;;;;;5063649;28;20197;-81
2022/06/20 00:32:08;;;;;;;24.58;13.35;;;15.50;99.90;;;;;;5069799;28;20189;-81
2022/06/20 00:34:40;;;;;;;10.77;4.97;;;15.60;99.90;;;;;;5056285;28;20694;-84
2022/06/20 00:37:17;;;;;;;9.63;3.80;;;15.80;99.90;;;;;;5071427;28;20694;-80
2022/06/20 00:39:48;;;;;;;6.90;3.60;;;15.80;99.90;;;;;;5062954;28;20200;-79
2022/06/20 00:42:21;;;;;;;14.15;3.40;;;15.90;99.90;;;;;;5060013;28;20209;-79
2022/06/20 00:44:55;;;;;;;10.73;3.45;;;16.10;99.90;;;;;;5064005;28;20201;-80
2022/06/20 00:47:28;;;;;;;10.00;2.65;;;16.20;99.90;;;;;;5063436;28;20197;-80
2022/06/20 00:50:05;;;;;;;8.43;3.72;;;16.30;99.90;;;;;;5056367;28;20193;-80
2022/06/20 00:52:41;;;;;;;7.32;2.60;;;16.40;99.90;;;;;;5066712;28;20197;-82
2022/06/20 00:55:21;;;;;;;9.30;1.90;;;16.60;99.90;;;;;;5051291;28;20233;-79
2022/06/20 00:57:55;;;;;;;6.80;1.90;;;16.60;99.90;;;;;;5067751;28;20192;-79
2022/06/20 01:00:30;;;;;;;4.93;1.70;;;16.60;99.90;;;;;;5065728;28;20197;-80
2022/06/20 01:03:08;;;;;;;5.20;1.83;;;16.70;99.90;;;;;;5071264;28;20196;-79
2022/06/20 01:05:46;;;;;;;8.60;1.83;;;16.70;99.90;;;;;;5058912;28;20284;-80
2022/06/20 01:08:21;;;;;;;7.13;1.67;;;16.80;99.90;;;;;;5057121;28;20197;-80
2022/06/20 01:10:54;;;;;;;5.82;1.33;;;16.90;99.90;;;;;;5070265;28;20198;-81
2022/06/20 01:13:28;;;;;;;4.13;0.93;;;17.10;99.90;;;;;;5060105;28;20239;-80
2022/06/20 01:16:01;;;;;;;5.63;1.48;;;17.20;99.90;;;;;;5065117;28;20653;-79
2022/06/20 01:18:34;;;;;;;5.63;1.20;;;17.30;99.90;;;;;;5068531;28;20192;-80
2022/06/20 01:21:15;;;;;;;8.82;1.30;;;17.40;99.90;;;;;;5065250;28;20197;-80
2022/06/20 01:23:52;;;;;;;12.02;3.08;;;17.40;99.90;;;;;;5062767;28;20204;-80
2022/06/20 01:26:40;;;;;;;4.30;0.98;;;17.70;99.90;;;;;;5055421;28;20204;-79
2022/06/20 01:29:14;;;;;;;5.75;1.00;;;17.70;99.90;;;;;;5048489;28;20272;-83
2022/06/20 01:31:48;;;;;;;3.38;0.85;;;17.60;99.90;;;;;;5055160;28;20194;-80
2022/06/20 01:34:20;;;;;;;3.40;0.77;;;17.30;99.90;;;;;;5060663;28;20639;-80
2022/06/20 01:39:43;;;;;;;2.10;0.68;;;16.90;99.90;;;;;;5070122;28;20189;-81
2022/06/20 01:42:19;;;;;;;2.05;1.20;;;16.80;99.90;;;;;;5067831;28;20219;-81
2022/06/20 01:44:53;;;;;;;3.03;1.02;;;16.70;99.90;;;;;;5062231;28;20216;-79
2022/06/20 01:47:24;;;;;;;4.82;1.00;;;16.70;99.90;;;;;;5058446;28;20196;-80
2022/06/20 01:49:58;;;;;;;1.45;0.65;;;16.60;99.90;;;;;;5061009;28;20204;-79
2022/06/20 01:52:33;;;;;;;1.65;0.80;;;16.70;99.90;;;;;;5063345;28;20186;-80
2022/06/20 01:55:08;;;;;;;3.55;0.90;;;16.70;99.90;;;;;;5064896;28;20242;-78
2022/06/20 01:57:40;;;;;;;2.95;0.70;;;16.70;99.90;;;;;;5066808;28;20220;-79
2022/06/20 02:00:15;;;;;;;3.75;0.77;;;16.70;99.90;;;;;;5068633;28;20201;-80
2022/06/20 02:02:51;;;;;;;2.60;0.82;;;16.70;99.90;;;;;;5058354;28;20181;-80
2022/06/20 02:05:23;;;;;;;2.13;0.77;;;16.70;99.90;;;;;;5061565;28;20189;-80
2022/06/20 02:07:55;;;;;;;5.25;1.08;;;16.80;99.90;;;;;;5066421;28;20219;-79
2022/06/20 02:10:29;;;;;;;5.68;1.10;;;16.80;99.90;;;;;;5058771;28;20606;-80
2022/06/20 02:13:02;;;;;;;3.38;0.80;;;16.80;99.90;;;;;;5064152;28;20205;-79
2022/06/20 02:15:36;;;;;;;3.05;0.88;;;16.70;99.90;;;;;;5067141;28;20212;-81
2022/06/20 02:18:09;;;;;;;5.75;1.02;;;16.80;99.90;;;;;;5060340;28;20193;-79
2022/06/20 02:20:45;;;;;;;4.68;1.00;;;16.80;99.90;;;;;;5064243;28;20197;-83
2022/06/20 02:23:18;;;;;;;5.15;0.80;;;16.80;99.90;;;;;;5066009;28;20612;-80
2022/06/20 02:25:52;;;;;;;3.47;0.90;;;16.80;99.90;;;;;;5058574;28;20186;-81
2022/06/20 02:28:28;;;;;;;7.00;1.08;;;16.80;99.90;;;;;;5067200;28;20208;-79
2022/06/20 02:31:01;;;;;;;6.22;1.10;;;16.80;99.90;;;;;;5060617;28;20196;-79
2022/06/20 02:33:32;;;;;;;5.30;0.98;;;16.80;99.90;;;;;;5062240;28;20204;-79
2022/06/20 02:36:06;;;;;;;3.17;1.20;;;16.90;99.90;;;;;;5059932;28;20220;-78
2022/06/20 02:38:37;;;;;;;3.75;1.02;;;16.80;99.90;;;;;;5060767;28;20196;-79
2022/06/20 02:41:08;;;;;;;5.30;0.88;;;16.90;99.90;;;;;;5060351;28;20194;-78
2022/06/20 02:43:42;;;;;;;4.07;0.90;;;17.00;99.90;;;;;;5067129;28;20198;-78
2022/06/20 02:46:16;;;;;;;4.18;0.88;;;17.00;99.90;;;;;;5065268;28;20612;-78
2022/06/20 02:48:50;;;;;;;4.55;1.02;;;17.00;99.90;;;;;;5055258;28;20208;-78
2022/06/20 02:51:25;;;;;;;6.90;1.08;;;17.10;99.90;;;;;;5063174;28;20204;-78
2022/06/20 02:53:59;;;;;;;5.30;1.20;;;17.10;99.90;;;;;;5059183;28;20227;-78
2022/06/20 02:56:33;;;;;;;6.45;1.08;;;17.10;99.90;;;;;;5061431;28;20236;-80
2022/06/20 02:59:13;;;;;;;5.57;1.10;;;17.10;99.90;;;;;;5064171;28;20192;-78
2022/06/20 03:01:52;;;;;;;5.00;1.48;;;17.10;99.90;;;;;;5068490;28;20196;-77
2022/06/20 03:04:24;;;;;;;5.97;1.30;;;17.00;99.90;;;;;;5066955;28;20189;-77
2022/06/20 03:06:58;;;;;;;9.05;1.15;;;17.00;99.90;;;;;;5065160;28;20204;-80
2022/06/20 03:09:31;;;;;;;5.93;1.17;;;16.90;99.90;;;;;;5062973;28;20204;-77
2022/06/20 03:12:05;;;;;;;3.92;0.95;;;16.80;99.90;;;;;;5063302;28;20204;-78
2022/06/20 03:14:39;;;;;;;5.63;0.88;;;16.70;99.90;;;;;;5066172;28;20189;-76
2022/06/20 03:17:13;;;;;;;6.15;1.02;;;16.60;99.90;;;;;;5056483;28;20185;-76
2022/06/20 03:19:51;;;;;;;3.40;0.80;;;16.40;99.90;;;;;;5061916;28;20297;-78
2022/06/20 03:22:24;;;;;;;3.63;0.80;;;16.30;99.90;;;;;;5051012;28;20599;-77
2022/06/20 03:24:57;;;;;;;3.75;0.75;;;16.30;99.90;;;;;;5066435;28;20196;-77
2022/06/20 03:27:30;;;;;;;5.20;0.80;;;16.20;99.90;;;;;;5063676;28;20204;-78
2022/06/20 03:30:06;;;;;;;4.80;0.95;;;16.20;99.90;;;;;;5070608;28;20215;-78
2022/06/20 03:32:39;;;;;;;4.63;0.90;;;16.20;99.90;;;;;;5069636;28;20200;-77
2022/06/20 03:35:10;;;;;;;4.25;0.95;;;16.20;99.90;;;;;;5058161;28;20213;-77
2022/06/20 03:37:41;;;;;;;6.85;0.98;;;16.20;99.90;;;;;;5066344;28;20189;-76
2022/06/20 03:40:12;;;;;;;3.80;1.05;;;16.20;99.90;;;;;;5071641;28;20237;-77
2022/06/20 03:42:43;;;;;;;5.53;1.00;;;16.20;99.90;;;;;;5068681;28;20201;-78
2022/06/20 03:45:16;;;;;;;6.07;1.00;;;16.20;99.90;;;;;;5062535;28;20189;-77
2022/06/20 03:47:53;;;;;;;6.68;0.95;;;16.30;99.90;;;;;;5071104;28;20220;-77
2022/06/20 03:50:28;;;;;;;3.92;0.70;;;16.30;99.90;;;;;;5067784;28;20235;-77
2022/06/20 03:53:04;;;;;;;4.43;0.80;;;16.30;99.90;;;;;;5067107;28;20204;-77
2022/06/20 03:55:39;;;;;;;3.95;0.70;;;16.30;99.90;;;;;;5069364;28;20247;-78
2022/06/20 03:58:14;;;;;;;5.53;0.90;;;16.40;99.90;;;;;;5070593;28;20197;-78
2022/06/20 04:00:50;;;;;;;6.40;0.80;;;16.40;99.90;;;;;;5070176;28;20196;-82
2022/06/20 04:03:27;;;;;;;4.30;0.90;;;16.50;99.90;;;;;;5063379;28;20185;-77
2022/06/20 04:06:01;;;;;;;3.05;0.63;;;16.50;99.90;;;;;;5067115;28;20192;-77
2022/06/20 04:11:32;;;;;;;6.15;0.90;;;16.60;99.90;;;;;;5066328;28;20207;-77
2022/06/20 04:14:10;;;;;;;6.72;0.80;;;16.60;99.90;;;;;;5058460;28;20204;-77
2022/06/20 04:16:46;;;;;;;4.95;0.73;;;16.70;99.90;;;;;;5067746;28;20204;-77
2022/06/20 04:19:22;;;;;;;5.65;0.90;;;16.70;99.90;;;;;;5070750;28;20196;-77
2022/06/20 04:21:58;;;;;;;4.35;0.88;;;16.70;99.90;;;;;;5068364;28;20195;-77
2022/06/20 04:24:33;;;;;;;6.10;1.17;;;16.70;99.90;;;;;;5067651;28;20196;-77
2022/06/20 04:27:09;;;;;;;8.60;1.10;;;16.80;99.90;;;;;;5067423;28;20212;-80
2022/06/20 04:29:43;;;;;;;3.45;0.93;;;16.80;99.90;;;;;;5065787;28;20196;-76
2022/06/20 04:32:18;;;;;;;2.72;0.60;;;16.70;99.90;;;;;;5070121;28;20193;-76
2022/06/20 04:34:54;;;;;;;5.22;1.00;;;16.70;99.90;;;;;;5067981;28;20215;-76
2022/06/20 04:37:28;;;;;;;5.15;0.80;;;16.70;99.90;;;;;;5068833;28;20189;-77
2022/06/20 04:40:04;;;;;;;7.97;1.30;;;16.60;99.90;;;;;;5070095;28;20549;-77
2022/06/20 04:42:41;;;;;;;5.25;0.93;;;16.50;99.90;;;;;;5065940;28;20197;-77
2022/06/20 04:45:19;;;;;;;4.03;0.73;;;16.50;99.90;;;;;;5056678;28;20597;-77
2022/06/20 04:47:55;;;;;;;9.25;1.00;;;16.50;99.90;;;;;;5059836;28;20596;-77
2022/06/20 04:50:30;;;;;;;3.70;0.70;;;16.50;99.90;;;;;;5063148;28;20196;-77
2022/06/20 04:53:05;;;;;;;5.38;0.80;;;16.50;99.90;;;;;;5068483;28;20200;-76
2022/06/20 04:55:38;;;;;;;4.97;1.10;;;16.50;99.90;;;;;;5063035;28;20237;-86
2022/06/20 04:58:11;;;;;;;5.28;0.90;;;16.50;99.90;;;;;;5071517;28;20583;-76
2022/06/20 05:00:44;;;;;;;4.22;0.77;;;16.50;99.90;;;;;;5068288;28;20206;-77
2022/06/20 05:03:20;;;;;;;6.15;1.00;;;16.40;99.90;;;;;;5069471;28;20674;-76
2022/06/20 05:05:55;;;;;;;5.50;0.90;;;16.40;99.90;;;;;;5066995;28;20204;-76
2022/06/20 05:08:30;;;;;;;7.53;1.20;;;16.40;99.90;;;;;;5064574;28;20189;-77
2022/06/20 05:11:05;;;;;;;7.03;0.80;;;16.40;99.90;;;;;;5065072;28;20204;-78
2022/06/20 05:13:39;;;;;;;7.75;1.10;;;16.40;99.90;;;;;;5069098;28;20646;-77
2022/06/20 05:16:18;;;;;;;6.72;1.00;;;16.50;99.90;;;;;;5057389;28;20212;-75
2022/06/20 05:18:51;;;;;;;3.50;1.00;;;16.40;99.90;;;;;;5059688;28;20286;-76
2022/06/20 05:21:29;;;;;;;4.95;0.95;;;16.40;99.90;;;;;;5068084;28;20197;-81
2022/06/20 05:24:02;;;;;;;4.28;0.60;;;16.30;99.90;;;;;;5062821;28;21736;-77
2022/06/20 05:26:36;;;;;;;2.72;0.70;;;16.30;99.90;;;;;;5071268;28;20273;-76
2022/06/20 05:29:12;;;;;;;4.07;0.73;;;16.20;99.90;;;;;;5067107;28;20242;-80
2022/06/20 05:31:47;;;;;;;3.97;0.77;;;16.20;99.90;;;;;;5068564;28;20647;-77
2022/06/20 05:34:24;;;;;;;6.03;0.80;;;16.10;99.90;;;;;;5069309;28;20651;-77
2022/06/20 05:37:05;;;;;;;3.55;0.63;;;16.10;99.90;;;;;;5064448;28;20710;-77
2022/06/20 05:39:40;;;;;;;1.35;0.43;;;16.10;99.90;;;;;;5066045;28;20208;-76
2022/06/20 05:42:15;;;;;;;2.22;0.50;;;16.10;99.90;;;;;;5055295;28;20181;-77
2022/06/20 05:44:46;;;;;;;2.72;0.60;;;16.00;99.90;;;;;;5059625;28;20189;-77
2022/06/20 05:47:23;;;;;;;2.90;0.80;;;16.00;99.90;;;;;;5062883;28;20200;-79
2022/06/20 05:49:58;;;;;;;2.25;0.70;;;16.00;99.90;;;;;;5068176;28;20196;-77
2022/06/20 05:52:32;;;;;;;6.60;0.90;;;16.00;99.90;;;;;;5059937;28;20203;-81
2022/06/20 05:55:08;;;;;;;4.55;0.80;;;16.00;99.90;;;;;;5064455;28;20324;-78
2022/06/20 05:57:41;;;;;;;3.67;0.85;;;16.00;99.90;;;;;;5064742;28;20773;-77
2022/06/20 06:00:19;;;;;;;3.75;0.80;;;15.90;99.90;;;;;;5060913;28;20233;-77
2022/06/20 06:02:54;;;;;;;3.65;1.08;;;15.90;99.90;;;;;;5060436;28;20571;-78
2022/06/20 06:05:31;;;;;;;3.53;0.80;;;15.90;99.90;;;;;;5057160;28;20205;-77
2022/06/20 06:08:07;;;;;;;2.08;0.70;;;15.90;99.90;;;;;;5066414;28;20295;-77
2022/06/20 06:10:43;;;;;;;2.60;0.70;;;16.00;99.90;;;;;;5066156;28;20196;-78
2022/06/20 06:13:22;;;;;;;3.95;1.10;;;16.00;99.90;;;;;;5063231;28;20189;-78
2022/06/20 06:18:54;;;;;;;5.95;1.23;;;16.00;99.90;;;;;;5066809;28;20207;-80
2022/06/20 06:21:25;;;;;;;2.97;0.88;;;16.00;99.90;;;;;;5062444;28;20683;-84
2022/06/20 06:24:00;;;;;;;4.15;0.93;;;16.00;99.90;;;;;;5069783;28;20250;-77
2022/06/20 06:26:31;;;;;;;2.60;1.02;;;16.00;99.90;;;;;;5068814;28;20195;-77
2022/06/20 06:29:02;;;;;;;6.13;1.02;;;16.00;99.90;;;;;;5064356;28;20196;-77
2022/06/20 06:31:36;;;;;;;8.75;3.15;;;16.00;99.90;;;;;;5070276;28;20181;-78
2022/06/20 06:34:15;;;;;;;5.57;2.10;;;16.00;99.90;;;;;;5069586;28;20209;-79
2022/06/20 06:36:49;;;;;;;7.00;1.85;;;15.90;99.90;;;;;;5069179;28;20266;-78
2022/06/20 06:39:27;;;;;;;12.40;6.97;;;15.90;99.90;;;;;;5065708;28;20185;-77
2022/06/20 06:42:00;;;;;;;12.57;5.63;;;15.90;99.90;;;;;;5063826;28;20193;-78
2022/06/20 06:44:36;;;;;;;16.95;9.02;;;15.90;99.90;;;;;;5064323;28;20613;-77
2022/06/20 06:47:08;;;;;;;20.30;7.88;;;15.80;99.90;;;;;;5054904;28;20541;-77
2022/06/20 06:49:44;;;;;;;12.85;7.45;;;15.80;99.90;;;;;;5058618;28;20668;-77
2022/06/20 06:52:18;;;;;;;17.08;5.72;;;15.70;99.90;;;;;;5070543;28;20194;-77
2022/06/20 06:54:59;;;;;;;11.57;5.82;;;15.60;99.90;;;;;;5061328;28;20235;-77
2022/06/20 06:57:37;;;;;;;10.77;4.18;;;15.60;99.90;;;;;;5069690;28;20303;-77
2022/06/20 07:00:24;;;;;;;9.38;3.50;;;15.50;99.90;;;;;;5062006;28;20190;-77
2022/06/20 07:02:59;;;;;;;11.00;3.70;;;15.40;99.90;;;;;;5066855;28;20246;-77
2022/06/20 07:05:36;;;;;;;8.38;2.80;;;15.40;99.90;;;;;;5069771;28;20203;-77
2022/06/20 07:08:13;;;;;;;7.82;2.53;;;15.20;99.90;;;;;;5063518;28;20263;-77
2022/06/20 07:10:52;;;;;;;7.05;2.40;;;15.10;99.90;;;;;;5067258;28;20664;-77
2022/06/20 07:13:31;;;;;;;6.32;2.90;;;15.10;99.90;;;;;;5062792;28;20230;-76
2022/06/20 07:16:03;;;;;;;9.10;2.63;;;15.10;99.90;;;;;;5065156;28;20198;-77
2022/06/20 07:18:44;;;;;;;9.13;3.03;;;15.00;99.90;;;;;;5070843;28;20197;-78
2022/06/20 07:21:21;;;;;;;7.30;2.85;;;14.90;99.90;;;;;;5062695;28;20193;-79
2022/06/20 07:23:55;;;;;;;5.72;3.00;;;14.80;99.90;;;;;;5066642;28;20193;-78
2022/06/20 07:26:30;;;;;;;9.40;3.42;;;14.80;99.90;;;;;;5059775;28;20197;-77
2022/06/20 07:29:05;;;;;;;7.35;2.60;;;14.80;99.90;;;;;;5060941;28;20201;-77
2022/06/20 07:31:41;;;;;;;5.75;2.38;;;14.70;99.90;;;;;;5066507;28;20204;-81
2022/06/20 07:34:14;;;;;;;8.95;2.65;;;14.60;99.90;;;;;;5061391;28;20201;-77
2022/06/20 07:36:53;;;;;;;7.72;2.33;;;14.50;99.90;;;;;;5065269;28;20240;-78
2022/06/20 07:39:28;;;;;;;5.85;2.03;;;14.50;99.90;;;;;;5065298;28;20201;-78
2022/06/20 07:42:07;;;;;;;8.52;3.17;;;14.40;99.90;;;;;;5064875;28;20204;-76
2022/06/20 07:44:40;;;;;;;6.82;2.92;;;14.40;99.90;;;;;;5062907;28;20202;-81
2022/06/20 07:47:17;;;;;;;8.95;2.88;;;14.30;99.90;;;;;;5066291;28;20567;-82
2022/06/20 07:49:51;;;;;;;7.43;3.20;;;14.20;99.90;;;;;;5064105;28;20660;-77
2022/06/20 07:52:25;;;;;;;5.50;2.60;;;14.20;99.90;;;;;;5070940;28;20193;-77
2022/06/20 07:54:59;;;;;;;7.65;3.00;;;14.20;99.90;;;;;;5068225;28;20247;-80
2022/06/20 07:57:38;;;;;;;6.63;2.63;;;14.20;99.90;;;;;;5063545;28;20221;-78
2022/06/20 08:00:15;;;;;;;6.57;2.75;;;14.20;99.90;;;;;;5071337;28;20198;-77
2022/06/20 08:02:51;;;;;;;6.78;2.65;;;14.20;99.90;;;;;;5063999;28;20193;-82
2022/06/20 08:05:27;;;;;;;5.45;2.75;;;14.20;99.90;;;;;;5061996;28;21121;-76
2022/06/20 08:08:03;;;;;;;6.40;2.67;;;14.10;99.90;;;;;;5058712;28;20705;-77
2022/06/20 08:10:39;;;;;;;8.20;2.65;;;14.10;99.90;;;;;;5070265;28;20632;-77
2022/06/20 08:13:23;;;;;;;6.47;2.58;;;14.10;99.90;;;;;;5069278;28;20200;-76
2022/06/20 08:15:58;;;;;;;8.70;2.42;;;14.00;99.90;;;;;;5069904;28;20201;-75
2022/06/20 08:18:30;;;;;;;6.07;2.47;;;13.90;99.90;;;;;;5059574;28;20255;-76
2022/06/20 08:21:04;;;;;;;8.10;2.50;;;13.90;99.90;;;;;;5063090;28;20197;-80
2022/06/20 08:23:43;;;;;;;4.72;2.25;;;13.90;99.90;;;;;;5066208;28;20268;-78
2022/06/20 08:26:17;;;;;;;5.50;2.22;;;13.90;99.90;;;;;;5063135;28;20204;-76
2022/06/20 08:28:55;;;;;;;7.57;3.03;;;14.00;99.90;;;;;;5060743;28;20192;-80
2022/06/20 08:31:32;;;;;;;6.13;2.55;;;13.90;99.90;;;;;;5059903;28;20200;-76
2022/06/20 08:34:08;;;;;;;6.07;2.28;;;13.90;99.90;;;;;;5062279;28;20199;-76
2022/06/20 08:36:51;;;;;;;6.80;2.63;;;14.00;99.90;;;;;;5059692;28;22063;-75
2022/06/20 08:39:26;;;;;;;5.15;2.33;;;14.00;99.90;;;;;;5057389;28;20209;-77
2022/06/20 08:42:24;;;;;;;7.25;2.72;;;14.00;99.90;;;;;;5070505;28;20189;-76
2022/06/20 08:45:32;;;;;;;8.27;2.92;;;14.00;99.90;;;;;;5054253;28;20657;-76
2022/06/20 08:48:37;;;;;;;6.72;2.30;;;14.10;99.90;;;;;;5069102;28;20208;-77
2022/06/20 08:52:06;;;;;;;5.75;2.33;;;14.10;99.90;;;;;;5057694;28;20213;-75
2022/06/20 08:55:08;;;;;;;8.30;2.72;;;14.20;99.90;;;;;;5034620;28;20232;-76
2022/06/20 08:57:51;;;;;;;9.95;2.80;;;14.20;99.90;;;;;;5055432;28;20223;-75
2022/06/20 09:00:33;;;;;;;8.82;3.10;;;14.30;99.90;;;;;;5061355;28;20208;-76
2022/06/20 09:03:24;;;;;;;7.20;2.70;;;14.30;99.90;;;;;;5065704;28;20192;-78
2022/06/20 09:06:14;;;;;;;6.68;2.55;;;14.30;99.90;;;;;;5061525;28;20660;-78
2022/06/20 09:09:04;;;;;;;5.13;2.53;;;14.30;99.90;;;;;;5058858;28;20198;-76
2022/06/20 09:11:48;;;;;;;6.70;2.50;;;14.30;99.90;;;;;;5064989;28;20204;-76
2022/06/20 09:14:37;;;;;;;8.25;2.55;;;14.30;99.90;;;;;;5066136;28;20275;-75
2022/06/20 09:17:19;;;;;;;7.15;2.47;;;14.40;99.90;;;;;;5063013;28;20230;-76
2022/06/20 09:20:04;;;;;;;9.27;2.70;;;14.30;99.90;;;;;;5060973;28;20649;-76
2022/06/20 09:22:47;;;;;;;8.57;2.78;;;14.30;99.90;;;;;;5069228;28;20201;-75
2022/06/20 09:25:31;;;;;;;6.43;2.67;;;14.30;99.90;;;;;;5067026;28;20201;-79
2022/06/20 09:28:16;;;;;;;7.95;2.45;;;14.30;99.90;;;;;;5069025;28;20198;-77
2022/06/20 09:30:56;;;;;;;7.90;2.65;;;14.30;99.90;;;;;;5059670;28;20194;-78
2022/06/20 09:33:52;;;;;;;6.47;2.85;;;14.20;99.90;;;;;;5061448;28;20197;-80
2022/06/20 09:36:54;;;;;;;5.68;3.00;;;14.20;99.90;;;;;;5069147;28;20200;-75
2022/06/20 09:39:40;;;;;;;6.75;2.55;;;14.10;99.90;;;;;;5057398;28;20694;-81
2022/06/20 09:42:22;;;;;;;7.63;3.03;;;14.10;99.90;;;;;;5052080;28;20259;-77
2022/06/20 09:44:59;;;;;;;10.07;2.83;;;14.10;99.90;;;;;;5066393;28;20198;-77
2022/06/20 09:47:43;;;;;;;9.88;3.13;;;14.00;99.90;;;;;;5069734;28;20193;-77
2022/06/20 09:50:33;;;;;;;7.60;3.45;;;14.00;99.90;;;;;;5058379;28;20211;-77
2022/06/20 09:53:17;;;;;;;7.90;3.60;;;14.00;99.90;;;;;;5061695;28;20303;-76
2022/06/20 09:55:59;;;;;;;8.35;4.90;;;13.90;99.90;;;;;;5062556;28;20233;-78
2022/06/20 09:58:41;;;;;;;13.10;5.10;;;13.80;99.90;;;;;;5060377;28;20631;-79
2022/06/20 10:01:17;;;;;;;9.50;4.50;;;13.80;99.90;;;;;;5050222;28;20200;-75
2022/06/20 10:03:55;;;;;;;10.32;5.28;;;13.80;99.90;;;;;;5063025;28;20200;-78
2022/06/20 10:06:42;;;;;;;12.13;6.45;;;13.70;99.90;;;;;;5062597;28;20211;-76
2022/06/20 10:09:17;;;;;;;14.32;6.50;;;13.60;99.90;;;;;;5071037;28;20196;-77
2022/06/20 10:11:53;;;;;;;13.23;5.75;;;13.60;99.90;;;;;;5061220;28;20196;-76
2022/06/20 10:14:30;;;;;;;11.95;5.88;;;13.50;99.90;;;;;;5063946;28;20193;-77
2022/06/20 10:17:11;;;;;;;8.75;4.93;;;13.60;99.90;;;;;;5070493;28;20585;-76
2022/06/20 10:19:48;;;;;;;10.45;5.15;;;13.50;99.90;;;;;;5071159;28;20197;-78
2022/06/20 10:22:29;;;;;;;11.00;4.80;;;13.50;99.90;;;;;;5069488;28;20197;-76
2022/06/20 10:25:16;;;;;;;10.80;4.85;;;13.50;99.90;;;;;;5067435;28;20233;-79
2022/06/20 10:27:54;;;;;;;10.18;4.72;;;13.50;99.90;;;;;;5054883;28;20193;-77
2022/06/20 10:30:37;;;;;;;11.15;4.63;;;13.50;99.90;;;;;;5066658;28;20756;-77
2022/06/20 10:33:34;;;;;;;12.23;4.55;;;13.40;99.90;;;;;;5067729;28;20196;-76
2022/06/20 10:36:21;;;;;;;7.57;4.30;;;13.40;99.90;;;;;;5068590;28;20204;-76
2022/06/20 10:39:10;;;;;;;11.30;4.40;;;13.30;99.90;;;;;;5069978;28;20303;-76
2022/06/20 10:41:52;;;;;;;9.40;4.43;;;13.40;99.90;;;;;;5062832;28;20271;-76
2022/06/20 10:44:27;;;;;;;8.38;3.75;;;13.10;99.90;;;;;;5066317;28;20194;-76
2022/06/20 10:47:07;;;;;;;8.88;4.03;;;13.10;99.90;;;;;;5062330;28;20207;-77
2022/06/20 10:49:57;;;;;;;7.30;4.07;;;13.00;99.90;;;;;;5075284;28;20677;-81
2022/06/20 10:52:44;;;;;;;11.55;4.32;;;13.00;99.90;;;;;;5058558;28;20198;-77
2022/06/20 10:55:29;;;;;;;9.23;4.18;;;13.10;99.90;;;;;;5058081;28;20241;-75
2022/06/20 10:58:13;;;;;;;9.35;4.28;;;13.10;99.90;;;;;;5070898;28;20254;-76
2022/06/20 11:00:56;;;;;;;9.60;4.63;;;13.00;99.90;;;;;;5057641;28;20629;-76
2022/06/20 11:04:03;;;;;;;10.43;4.82;;;13.00;99.90;;;;;;5065795;28;20189;-76
2022/06/20 11:06:57;;;;;;;9.25;4.20;;;12.90;99.90;;;;;;5058939;28;20197;-75
2022/06/20 11:09:35;;;;;;;10.30;4.38;;;12.80;99.90;;;;;;5062010;28;20205;-76
2022/06/20 11:12:12;;;;;;;8.60;4.38;;;12.80;99.90;;;;;;5074691;28;20239;-75
2022/06/20 11:14:51;;;;;;;8.98;4.68;;;12.80;99.90;;;;;;5072056;28;20201;-76
2022/06/20 11:17:37;;;;;;;8.85;4.90;;;12.80;99.90;;;;;;5063382;28;20212;-77
2022/06/20 11:20:20;;;;;;;9.05;4.18;;;12.80;99.90;;;;;;5069164;28;20201;-77
2022/06/20 11:22:56;;;;;;;11.48;4.72;;;12.80;99.90;;;;;;5067914;28;20302;-77
2022/06/20 11:25:39;;;;;;;11.00;4.95;;;12.70;99.90;;;;;;5070665;28;20536;-79
2022/06/20 11:28:41;;;;;;;8.60;4.90;;;12.70;99.90;;;;;;5071161;28;20220;-77
2022/06/20 11:31:17;;;;;;;9.10;4.40;;;12.70;99.90;;;;;;5061621;28;20732;-75
2022/06/20 11:34:06;;;;;;;9.82;4.85;;;12.70;99.90;;;;;;5065722;28;20201;-75
2022/06/20 11:36:50;;;;;;;9.52;4.38;;;12.60;99.90;;;;;;5066455;28;20198;-75
2022/06/20 11:39:40;;;;;;;11.45;4.85;;;12.60;99.90;;;;;;5064331;28;20214;-76
2022/06/20 11:42:35;;;;;;;13.23;4.68;;;12.50;99.90;;;;;;5067947;28;20229;-75
2022/06/20 11:45:29;;;;;;;9.27;4.53;;;12.40;99.90;;;;;;5061339;28;20553;-76
2022/06/20 11:48:20;;;;;;;11.38;4.60;;;12.40;99.90;;;;;;5066623;28;20196;-75
2022/06/20 11:50:59;;;;;;;9.00;4.60;;;12.30;99.90;;;;;;5068154;28;20644;-77
2022/06/20 11:53:42;;;;;;;9.00;4.85;;;12.30;99.90;;;;;;5067291;28;20216;-75
2022/06/20 11:56:22;;;;;;;11.00;5.07;;;12.20;99.90;;;;;;5063014;28;20229;-75
2022/06/20 11:59:08;;;;;;;11.40;5.53;;;12.10;99.90;;;;;;5066002;28;20262;-75
2022/06/20 12:01:49;;;;;;;12.10;6.13;;;12.10;99.90;;;;;;5068519;28;20192;-82
2022/06/20 12:04:27;;;;;;;12.50;5.95;;;12.00;99.90;;;;;;5065430;28;20236;-76
2022/06/20 12:07:05;;;;;;;12.20;5.70;;;12.10;99.90;;;;;;5068384;28;20670;-76
2022/06/20 12:09:44;;;;;;;13.15;6.57;;;12.10;99.90;;;;;;5064001;28;20666;-76
2022/06/20 12:12:32;;;;;;;11.48;6.90;;;12.10;99.90;;;;;;5059709;28;20194;-75
2022/06/20 12:15:28;;;;;;;13.30;6.68;;;12.10;99.90;;;;;;5071742;28;20239;-75
2022/06/20 12:18:12;;;;;;;12.25;6.30;;;12.10;99.90;;;;;;5064052;28;20216;-76
2022/06/20 12:23:33;;;;;;;58.28;38.08;;;12.00;99.90;;;;;;5067667;28;20331;-76
2022/06/20 12:26:08;;;;;;;64.47;39.03;;;12.10;99.90;;;;;;5065196;28;20692;-77
2022/06/20 12:28:40;;;;;;;30.98;17.73;;;12.10;99.90;;;;;;5063123;28;20201;-79
2022/06/20 12:31:20;;;;;;;14.52;7.55;;;12.10;99.90;;;;;;5063045;28;20203;-76
2022/06/20 12:33:56;;;;;;;13.68;6.65;;;12.00;99.90;;;;;;5057811;28;20198;-76
2022/06/20 12:36:35;;;;;;;11.70;6.18;;;12.10;99.90;;;;;;5068119;28;20633;-75
2022/06/20 12:39:12;;;;;;;10.80;6.15;;;12.00;99.90;;;;;;5058468;28;20613;-76
2022/06/20 12:41:47;;;;;;;9.63;5.63;;;12.00;99.90;;;;;;5067367;28;20201;-78
2022/06/20 12:44:30;;;;;;;10.60;6.43;;;12.00;99.90;;;;;;5057752;28;20286;-75
2022/06/20 12:47:40;;;;;;;11.88;6.47;;;12.00;99.90;;;;;;5063987;28;20285;-76
2022/06/20 12:50:24;;;;;;;12.85;6.95;;;11.90;99.90;;;;;;5028307;28;20687;-75
2022/06/20 12:53:23;;;;;;;13.07;6.60;;;11.90;99.90;;;;;;5067672;28;20228;-77
2022/06/20 12:56:06;;;;;;;12.90;6.60;;;11.90;99.90;;;;;;5064994;28;20229;-76
2022/06/20 12:59:02;;;;;;;15.48;6.68;;;11.90;99.90;;;;;;5061637;28;20217;-76
2022/06/20 13:01:40;;;;;;;14.40;7.15;;;11.80;99.90;;;;;;5052054;28;20284;-75
2022/06/20 13:04:41;;;;;;;10.27;6.13;;;11.80;99.90;;;;;;5061402;28;20229;-76
2022/06/20 13:07:26;;;;;;;48.28;31.85;;;11.80;99.90;;;;;;5055048;28;20197;-76
2022/06/20 13:10:24;;;;;;;29.85;17.17;;;11.80;99.90;;;;;;5060641;28;20186;-77
2022/06/20 13:13:17;;;;;;;19.10;8.40;;;11.80;99.90;;;;;;5069916;28;20223;-76
2022/06/20 13:15:53;;;;;;;13.88;8.32;;;11.80;99.90;;;;;;5059335;28;20193;-76
2022/06/20 13:18:48;;;;;;;14.70;7.60;;;11.80;99.90;;;;;;5063061;28;20571;-75
2022/06/20 13:21:39;;;;;;;13.50;7.00;;;11.70;99.90;;;;;;5137194;27;20290;-74
2022/06/20 13:24:23;;;;;;;17.80;7.82;;;11.70;99.90;;;;;;5122919;28;20198;-77
2022/06/20 13:27:05;;;;;;;14.07;7.28;;;11.60;99.90;;;;;;5118888;28;20657;-77
2022/06/20 13:29:45;;;;;;;13.85;7.20;;;11.60;99.90;;;;;;5119531;28;20179;-77
2022/06/20 13:32:23;;;;;;;13.57;6.88;;;11.60;99.90;;;;;;5120312;28;20203;-77
2022/06/20 13:35:01;;;;;;;14.52;7.10;;;11.60;99.90;;;;;;5121143;28;20240;-77
2022/06/20 13:37:44;;;;;;;15.38;7.70;;;11.50;99.90;;;;;;5118301;28;20195;-76
2022/06/20 13:40:33;;;;;;;12.70;7.20;;;11.60;99.90;;;;;;5119440;28;20242;-78
2022/06/20 13:43:29;;;;;;;14.15;7.50;;;11.50;99.90;;;;;;5123801;28;20607;-77
2022/06/20 13:46:09;;;;;;;14.93;7.07;;;11.50;99.90;;;;;;5119594;28;20199;-78
2022/06/20 13:48:44;;;;;;;10.82;6.80;;;11.50;99.90;;;;;;5118436;28;20191;-78
2022/06/20 13:51:18;;;;;;;12.77;7.20;;;11.50;99.90;;;;;;5123494;28;20602;-78
2022/06/20 13:53:57;;;;;;;15.25;7.30;;;11.50;99.90;;;;;;5104733;28;20222;-77